logo dgac
Jueves 26 de Abril del 2018

Metar

Buscar por aerodromo o helipuerto
Ingrese nombre de aeródromo, localidad o designador OACI:


SPECI del 26-04-2018 a las 13:10 UTC
SPECI SCIE 261310Z 01017G28KT 340V040 9999 OVC015 14/13 Q1013
Viento: dirección 010 grados, velocidad 17 nudos, con ráfagas de velocidad máxima de 28Nudos
Viento con dirección variable entre 340 y 040 grados
Visibilidad: 10 km o más
Nubes: Cubierto a 1500 pies sobre el nivel del aeródromo
Temperatura: 14 °C
Rocío: 13 °C
Humedad_relativa: 94%
Presión: 1013 hPa
METAR del 26-04-2018 a las 13:00 UTC
METAR SAZS 261300Z 30016G26KT 9000 -RA FEW025 BKN042 11/06 Q1003
Viento: dirección 300 grados, velocidad 16 nudos, con ráfagas de velocidad máxima de 26Nudos
Visibilidad: 9000 metros
Débil Lluvia
Nubes: Escasa nubosidad a 2500 pies sobre el nivel del aeródromo
Nubes: Nublado a 4200 pies sobre el nivel del aeródromo
Temperatura: 11 °C
Rocío: 6 °C
Humedad_relativa: 71%
Presión: 1003 hPa
METAR del 26-04-2018 a las 13:00 UTC
METAR SAWH 261300Z 14010KT 9999 VCSH BKN020 OVC035 00/M02 Q1006
Viento: dirección 140 grados, velocidad 10 nudos
Visibilidad: 10 km o más
En los alrededores, Chubascos
Nubes: Nublado a 2000 pies sobre el nivel del aeródromo
Nubes: Cubierto a 3500 pies sobre el nivel del aeródromo
Temperatura: 0 °C
Rocío: -2 °C
Humedad_relativa: 86%
Presión: 1006 hPa
METAR del 26-04-2018 a las 13:00 UTC
METAR SAWE 261300Z 14015KT 9999 SCT020 BKN100 02/M02 Q1005
Viento: dirección 140 grados, velocidad 15 nudos
Visibilidad: 10 km o más
Nubes: Nubosidad parcial a 2000 pies sobre el nivel del aeródromo
Nubes: Nublado a 10000 pies sobre el nivel del aeródromo
Temperatura: 2 °C
Rocío: -2 °C
Humedad_relativa: 75%
Presión: 1005 hPa
METAR del 26-04-2018 a las 13:00 UTC
METAR SAWG 261300Z 11015KT 4000 -DZ BR FEW003 FEW008 OVC050 05/05 Q1000
Viento: dirección 110 grados, velocidad 15 nudos
Visibilidad: 4000 metros
Débil LLovizna
Neblina
Nubes: Escasa nubosidad a 300 pies sobre el nivel del aeródromo
Nubes: Escasa nubosidad a 800 pies sobre el nivel del aeródromo
Nubes: Cubierto a 5000 pies sobre el nivel del aeródromo
Temperatura: 5 °C
Rocío: 5 °C
Humedad_relativa: 100%
Presión: 1000 hPa
METAR del 26-04-2018 a las 13:00 UTC
METAR SARE 261300Z 05008KT CAVOK 27/21 Q1016
Viento: dirección 050 grados, velocidad 8 nudos
Visibilidad: 10 km o más,
    sin nubes bajo los 5.000 pies o bajo del MSA (Mínimo de Seguridad del Aeródromo),
    sin cumulonimbus, y sin fenómenos de tiempo significativo en el aeródromo o alrededores
Temperatura: 27 °C
Rocío: 21 °C
Humedad_relativa: 70%
Presión: 1016 hPa
METAR del 26-04-2018 a las 13:00 UTC
METAR SAZN 261300Z 27003KT 0050 FG OVC002 11/11 Q1007
Viento: dirección 270 grados, velocidad 3 nudos
Visibilidad: 50 metros
Niebla
Nubes: Cubierto a 200 pies sobre el nivel del aeródromo
Temperatura: 11 °C
Rocío: 11 °C
Humedad_relativa: 100%
Presión: 1007 hPa
METAR del 26-04-2018 a las 13:00 UTC
METAR SAZM 261300Z 34007KT 9999 BKN005 OVC008 18/18 Q1016
Viento: dirección 340 grados, velocidad 7 nudos
Visibilidad: 10 km o más
Nubes: Nublado a 500 pies sobre el nivel del aeródromo
Nubes: Cubierto a 800 pies sobre el nivel del aeródromo
Temperatura: 18 °C
Rocío: 18 °C
Humedad_relativa: 100%
Presión: 1016 hPa
METAR del 26-04-2018 a las 13:00 UTC
METAR SAVC 261300Z NIL
Nan: NIL
METAR del 26-04-2018 a las 13:00 UTC
METAR SABE 261300Z 02007KT CAVOK 23/19 Q1016 NOSIG
Viento: dirección 020 grados, velocidad 7 nudos
Visibilidad: 10 km o más,
    sin nubes bajo los 5.000 pies o bajo del MSA (Mínimo de Seguridad del Aeródromo),
    sin cumulonimbus, y sin fenómenos de tiempo significativo en el aeródromo o alrededores
Temperatura: 23 °C
Rocío: 19 °C
Humedad_relativa: 78%
Presión: 1016 hPa
No se esperan cambios significativos en las próximas 2 horas